createdAt,value
2018-12-11T00:01:16.937Z,3.00
2018-12-11T00:03:19.605Z,2.90
2018-12-11T00:05:22.211Z,2.90
2018-12-11T00:07:24.780Z,2.90
2018-12-11T00:09:27.389Z,2.90
2018-12-11T00:11:33.964Z,2.90
2018-12-11T00:13:34.557Z,3.00
2018-12-11T00:15:37.137Z,2.90
2018-12-11T00:17:39.694Z,3.00
2018-12-11T00:19:42.284Z,3.00
2018-12-11T00:21:44.830Z,3.00
2018-12-11T00:23:47.393Z,3.00
2018-12-11T00:25:49.997Z,3.00
2018-12-11T00:27:52.562Z,2.90
2018-12-11T00:29:55.191Z,2.90
2018-12-11T00:31:57.765Z,2.90
2018-12-11T00:34:00.342Z,2.90
2018-12-11T00:36:02.968Z,2.90
2018-12-11T00:38:05.526Z,2.90
2018-12-11T00:40:08.200Z,2.90
2018-12-11T00:42:10.766Z,2.80
2018-12-11T00:44:13.353Z,2.80
2018-12-11T00:46:15.936Z,2.80
2018-12-11T00:48:18.495Z,2.80
2018-12-11T00:50:21.185Z,2.70
2018-12-11T00:52:23.763Z,2.70
2018-12-11T00:54:26.341Z,2.70
2018-12-11T00:56:28.928Z,2.70
2018-12-11T00:58:31.734Z,2.60
2018-12-11T01:00:34.954Z,2.70
2018-12-11T01:02:37.554Z,2.70
2018-12-11T01:04:40.150Z,2.70
2018-12-11T01:06:43.403Z,2.80
2018-12-11T01:08:45.967Z,2.70
2018-12-11T01:10:48.609Z,2.70
2018-12-11T01:12:51.174Z,2.70
2018-12-11T01:14:53.765Z,2.60
2018-12-11T01:16:56.314Z,2.70
2018-12-11T01:18:58.882Z,2.60
2018-12-11T01:21:01.487Z,2.60
2018-12-11T01:23:04.043Z,2.60
2018-12-11T01:25:06.817Z,2.60
2018-12-11T01:27:09.373Z,2.50
2018-12-11T01:29:11.939Z,2.50
2018-12-11T01:31:14.531Z,2.40
2018-12-11T01:33:17.096Z,2.40
2018-12-11T01:35:19.703Z,2.30
2018-12-11T01:37:22.281Z,2.30
2018-12-11T01:39:24.853Z,2.30
2018-12-11T01:41:27.459Z,2.20
2018-12-11T01:43:30.113Z,2.20
2018-12-11T01:45:32.718Z,2.20
2018-12-11T01:47:35.288Z,2.20
2018-12-11T01:49:37.862Z,2.20
2018-12-11T01:51:40.467Z,2.20
2018-12-11T01:53:43.043Z,2.20
2018-12-11T01:55:45.628Z,2.30
2018-12-11T01:57:48.177Z,2.30
2018-12-11T01:59:50.763Z,2.30
2018-12-11T02:01:53.420Z,2.30
2018-12-11T02:03:55.984Z,2.30
2018-12-11T02:05:58.583Z,2.30
2018-12-11T02:08:01.137Z,2.30
2018-12-11T02:10:04.196Z,2.30
2018-12-11T02:12:06.788Z,2.30
2018-12-11T02:14:09.344Z,2.40
2018-12-11T02:16:11.946Z,2.40
2018-12-11T02:18:14.518Z,2.40
2018-12-11T02:20:17.119Z,2.40
2018-12-11T02:22:19.694Z,2.40
2018-12-11T02:24:22.265Z,2.40
2018-12-11T02:26:24.953Z,2.40
2018-12-11T02:28:27.517Z,2.40
2018-12-11T02:30:30.116Z,2.40
2018-12-11T02:32:32.679Z,2.40
2018-12-11T02:34:35.250Z,2.40
2018-12-11T02:36:37.852Z,2.50
2018-12-11T02:38:40.503Z,2.50
2018-12-11T02:40:43.113Z,2.50
2018-12-11T02:42:45.676Z,2.50
2018-12-11T02:44:48.247Z,2.40
2018-12-11T02:46:50.859Z,2.40
2018-12-11T02:48:53.440Z,2.50
2018-12-11T02:50:56.009Z,2.50
2018-12-11T02:52:58.587Z,2.50
2018-12-11T02:55:01.159Z,2.50
2018-12-11T02:57:03.765Z,2.50
2018-12-11T02:59:06.375Z,2.50
2018-12-11T03:01:08.949Z,2.50
2018-12-11T03:03:11.564Z,2.50
2018-12-11T03:05:14.139Z,2.60
2018-12-11T03:07:16.736Z,2.60
2018-12-11T03:09:19.307Z,2.60
2018-12-11T03:11:21.857Z,2.70
2018-12-11T03:13:24.463Z,2.70
2018-12-11T03:15:27.038Z,2.70
2018-12-11T03:17:29.690Z,2.60
2018-12-11T03:19:32.271Z,2.60
2018-12-11T03:21:34.886Z,2.60
2018-12-11T03:23:37.456Z,2.60
2018-12-11T03:25:40.021Z,2.60
2018-12-11T03:27:43.162Z,2.60
2018-12-11T03:29:45.719Z,2.60
2018-12-11T03:31:48.481Z,2.60
2018-12-11T03:33:51.235Z,2.50
2018-12-11T03:35:53.801Z,2.50
2018-12-11T03:37:56.521Z,2.50
2018-12-11T03:39:59.086Z,2.40
2018-12-11T03:42:01.819Z,2.50
2018-12-11T03:44:05.815Z,2.40
2018-12-11T03:46:08.386Z,2.40
2018-12-11T03:48:10.984Z,2.40
2018-12-11T03:50:13.555Z,2.40
2018-12-11T03:52:21.436Z,2.40
2018-12-11T03:54:20.845Z,2.40
2018-12-11T03:56:23.511Z,2.40
2018-12-11T03:58:26.105Z,2.40
2018-12-11T04:00:28.662Z,2.40
2018-12-11T04:02:32.459Z,2.40
2018-12-11T04:04:35.057Z,2.40
2018-12-11T04:06:37.627Z,2.40
2018-12-11T04:08:40.215Z,2.30
2018-12-11T04:10:42.796Z,2.30
2018-12-11T04:12:45.402Z,2.40
2018-12-11T04:14:48.138Z,2.30
2018-12-11T04:16:50.709Z,2.30
2018-12-11T04:18:53.313Z,2.30
2018-12-11T04:20:55.885Z,2.30
2018-12-11T04:22:58.481Z,2.30
2018-12-11T04:25:03.039Z,2.30
2018-12-11T04:27:05.610Z,2.30
2018-12-11T04:29:08.249Z,2.30
2018-12-11T04:31:10.806Z,2.40
2018-12-11T04:33:13.402Z,2.40
2018-12-11T04:35:16.031Z,2.50
2018-12-11T04:37:18.603Z,2.50
2018-12-11T04:39:22.140Z,2.50
2018-12-11T04:41:24.743Z,2.50
2018-12-11T04:43:27.347Z,2.50
2018-12-11T04:45:30.181Z,2.50
2018-12-11T04:47:32.773Z,2.50
2018-12-11T04:49:35.378Z,2.50
2018-12-11T04:51:38.020Z,2.40
2018-12-11T04:53:40.687Z,2.40
2018-12-11T04:55:43.259Z,2.40
2018-12-11T04:57:46.064Z,2.40
2018-12-11T04:59:48.655Z,2.40
2018-12-11T05:01:51.232Z,2.40
2018-12-11T05:03:53.911Z,2.40
2018-12-11T05:05:56.500Z,2.40
2018-12-11T05:07:59.115Z,2.40
2018-12-11T05:10:01.727Z,2.40
2018-12-11T05:12:04.383Z,2.40
2018-12-11T05:14:06.979Z,2.30
2018-12-11T05:16:09.556Z,2.30
2018-12-11T05:18:12.133Z,2.30
2018-12-11T05:20:14.758Z,2.30
2018-12-11T05:22:17.315Z,2.30
2018-12-11T05:24:19.899Z,2.30
2018-12-11T05:26:22.455Z,2.30
2018-12-11T05:28:25.005Z,2.30
2018-12-11T05:30:27.598Z,2.30
2018-12-11T05:32:30.225Z,2.30
2018-12-11T05:34:32.813Z,2.40
2018-12-11T05:36:35.403Z,2.40
2018-12-11T05:38:37.975Z,2.40
2018-12-11T05:40:40.570Z,2.40
2018-12-11T05:42:43.127Z,2.50
2018-12-11T05:44:45.754Z,2.50
2018-12-11T05:46:48.399Z,2.50
2018-12-11T05:48:50.952Z,2.40
2018-12-11T05:50:53.533Z,2.40
2018-12-11T05:52:56.100Z,2.40
2018-12-11T05:54:58.746Z,2.30
2018-12-11T05:57:02.090Z,2.30
2018-12-11T05:59:05.295Z,2.30
2018-12-11T06:01:07.890Z,2.30
2018-12-11T06:03:10.549Z,2.20
2018-12-11T06:05:13.268Z,2.20
2018-12-11T06:07:15.828Z,2.20
2018-12-11T06:09:18.425Z,2.20
2018-12-11T06:11:21.012Z,2.20
2018-12-11T06:13:23.591Z,2.20
2018-12-11T06:15:26.210Z,2.20
2018-12-11T06:17:28.783Z,2.20
2018-12-11T06:19:31.361Z,2.20
2018-12-11T06:21:33.953Z,2.20
2018-12-11T06:23:36.533Z,2.20
2018-12-11T06:25:39.125Z,2.20
2018-12-11T06:27:41.679Z,2.20
2018-12-11T06:29:44.225Z,2.10
2018-12-11T06:31:46.859Z,2.20
2018-12-11T06:33:49.483Z,2.10
2018-12-11T06:35:52.180Z,2.10
2018-12-11T06:37:54.760Z,2.10
2018-12-11T06:39:57.412Z,2.10
2018-12-11T06:42:00.035Z,2.10
2018-12-11T06:44:02.631Z,2.00
2018-12-11T06:46:05.371Z,2.00
2018-12-11T06:48:07.974Z,2.00
2018-12-11T06:50:10.626Z,2.00
2018-12-11T06:52:13.280Z,1.90
2018-12-11T06:54:15.939Z,1.90
2018-12-11T06:56:18.651Z,1.90
2018-12-11T06:58:21.284Z,1.90
2018-12-11T07:00:24.008Z,1.90
2018-12-11T07:02:26.711Z,1.90
2018-12-11T07:04:29.394Z,1.90
2018-12-11T07:06:32.174Z,1.80
2018-12-11T07:08:35.694Z,1.80
2018-12-11T07:10:38.469Z,1.80
2018-12-11T07:12:41.328Z,1.80
2018-12-11T07:14:44.131Z,1.80
2018-12-11T07:16:47.292Z,1.80
2018-12-11T07:18:50.169Z,1.80
2018-12-11T07:20:53.101Z,1.90
2018-12-11T07:22:55.921Z,1.80
2018-12-11T07:24:58.635Z,1.80
2018-12-11T07:27:01.373Z,1.80
2018-12-11T07:29:04.086Z,1.80
2018-12-11T07:31:06.873Z,1.80
2018-12-11T07:33:09.616Z,1.80
2018-12-11T07:35:12.322Z,1.70
2018-12-11T07:37:15.095Z,1.70
2018-12-11T07:39:17.835Z,1.70
2018-12-11T07:41:20.709Z,1.70
2018-12-11T07:43:23.743Z,1.70
2018-12-11T07:45:26.660Z,1.70
2018-12-11T07:47:29.499Z,1.60
2018-12-11T07:49:32.236Z,1.60
2018-12-11T07:51:35.030Z,1.60
2018-12-11T07:53:37.839Z,1.70
2018-12-11T07:55:40.747Z,1.70
2018-12-11T07:57:43.526Z,1.70
2018-12-11T07:59:46.226Z,1.70
2018-12-11T08:01:48.998Z,1.70
2018-12-11T08:03:51.660Z,1.80
2018-12-11T08:05:54.340Z,1.80
2018-12-11T08:07:57.129Z,1.80
2018-12-11T08:09:59.820Z,1.80
2018-12-11T08:12:08.166Z,1.80
2018-12-11T08:14:07.202Z,1.90
2018-12-11T08:16:09.773Z,1.90
2018-12-11T08:18:12.372Z,1.90
2018-12-11T08:20:14.953Z,2.00
2018-12-11T08:22:17.551Z,2.20
2018-12-11T08:24:20.113Z,2.50
2018-12-11T08:26:22.948Z,2.80
2018-12-11T08:28:25.687Z,3.10
2018-12-11T08:30:28.261Z,3.30
2018-12-11T08:32:30.879Z,3.50
2018-12-11T08:34:33.526Z,3.70
2018-12-11T08:36:36.127Z,4.00
2018-12-11T08:38:38.681Z,4.00
2018-12-11T08:40:41.254Z,4.00
2018-12-11T08:42:43.965Z,3.80
2018-12-11T08:44:51.107Z,3.60
2018-12-11T08:46:51.149Z,3.40
2018-12-11T08:48:53.711Z,3.20
2018-12-11T08:50:56.282Z,3.20
2018-12-11T08:52:58.873Z,3.00
2018-12-11T08:55:01.571Z,3.00
2018-12-11T08:57:04.252Z,2.90
2018-12-11T08:59:07.013Z,3.00
2018-12-11T09:01:09.619Z,3.00
2018-12-11T09:03:12.231Z,2.90
2018-12-11T09:05:14.796Z,2.80
2018-12-11T09:07:17.385Z,2.80
2018-12-11T09:09:19.943Z,2.80
2018-12-11T09:11:22.516Z,2.80
2018-12-11T09:13:25.135Z,2.70
2018-12-11T09:15:27.710Z,2.70
2018-12-11T09:17:30.405Z,2.70
2018-12-11T09:19:32.968Z,2.70
2018-12-11T09:21:35.536Z,2.70
2018-12-11T09:23:38.126Z,2.70
2018-12-11T09:25:40.705Z,2.80
2018-12-11T09:27:43.297Z,2.80
2018-12-11T09:29:46.006Z,2.80
2018-12-11T09:31:48.576Z,2.80
2018-12-11T09:33:51.182Z,2.90
2018-12-11T09:35:53.761Z,3.00
2018-12-11T09:37:56.353Z,3.00
2018-12-11T09:39:58.933Z,2.90
2018-12-11T09:42:06.933Z,3.00
2018-12-11T09:44:06.244Z,3.00
2018-12-11T09:46:08.807Z,3.10
2018-12-11T09:48:11.388Z,3.10
2018-12-11T09:50:13.947Z,3.10
2018-12-11T09:52:16.564Z,3.20
2018-12-11T09:54:19.141Z,3.20
2018-12-11T09:56:21.801Z,3.30
2018-12-11T09:58:24.526Z,3.50
2018-12-11T10:00:27.526Z,4.20
2018-12-11T10:02:30.289Z,5.20
2018-12-11T10:04:32.845Z,6.20
2018-12-11T10:06:35.429Z,7.00
2018-12-11T10:08:38.035Z,7.70
2018-12-11T10:10:40.618Z,8.40
2018-12-11T10:12:43.207Z,9.30
2018-12-11T10:14:45.775Z,10.20
2018-12-11T10:16:48.343Z,10.80
2018-12-11T10:18:50.945Z,10.80
2018-12-11T10:20:53.519Z,10.30
2018-12-11T10:22:56.234Z,9.10
2018-12-11T10:24:58.793Z,8.20
2018-12-11T10:27:01.383Z,7.70
2018-12-11T10:29:04.097Z,8.00
2018-12-11T10:31:06.649Z,8.70
2018-12-11T10:33:09.233Z,9.40
2018-12-11T10:35:11.808Z,10.10
2018-12-11T10:37:14.368Z,10.90
2018-12-11T10:39:16.975Z,11.80
2018-12-11T10:41:19.626Z,12.60
2018-12-11T10:43:22.240Z,13.00
2018-12-11T10:45:24.791Z,13.50
2018-12-11T10:47:27.359Z,14.00
2018-12-11T10:49:29.942Z,14.40
2018-12-11T10:51:32.510Z,14.50
2018-12-11T10:53:35.156Z,14.80
2018-12-11T10:55:37.710Z,15.00
2018-12-11T10:57:40.308Z,15.30
2018-12-11T10:59:42.876Z,15.40
2018-12-11T11:01:46.249Z,15.50
2018-12-11T11:03:48.846Z,15.30
2018-12-11T11:05:51.403Z,15.30
2018-12-11T11:07:54.097Z,15.40
2018-12-11T11:09:56.660Z,15.60
2018-12-11T11:11:59.245Z,15.50
2018-12-11T11:14:01.898Z,15.50
2018-12-11T11:16:04.525Z,15.70
2018-12-11T11:18:07.109Z,15.50
2018-12-11T11:20:09.769Z,15.30
2018-12-11T11:22:12.319Z,15.40
2018-12-11T11:24:14.924Z,15.30
2018-12-11T11:26:17.485Z,14.90
2018-12-11T11:28:20.076Z,14.50
2018-12-11T11:30:22.644Z,14.40
2018-12-11T11:32:25.215Z,14.10
2018-12-11T11:34:31.786Z,14.10
2018-12-11T11:36:34.358Z,13.60
2018-12-11T11:38:36.947Z,13.30
2018-12-11T11:40:39.525Z,13.30
2018-12-11T11:42:42.158Z,13.40
2018-12-11T11:44:45.329Z,13.40
2018-12-11T11:46:47.896Z,13.40
2018-12-11T11:48:50.492Z,13.50
2018-12-11T11:50:53.045Z,13.40
2018-12-11T11:52:55.675Z,13.30
2018-12-11T11:54:58.275Z,13.30
2018-12-11T11:57:00.828Z,12.90
2018-12-11T11:59:03.530Z,12.30
2018-12-11T12:01:06.108Z,11.50
2018-12-11T12:03:08.722Z,11.10
2018-12-11T12:05:11.319Z,11.40
2018-12-11T12:07:13.983Z,11.70
2018-12-11T12:09:16.599Z,12.00
2018-12-11T12:11:19.160Z,12.10
2018-12-11T12:13:21.722Z,12.40
2018-12-11T12:15:24.327Z,12.80
2018-12-11T12:17:26.899Z,13.00
2018-12-11T12:19:30.103Z,12.50
2018-12-11T12:21:32.659Z,12.50
2018-12-11T12:23:35.239Z,12.80
2018-12-11T12:25:37.832Z,12.60
2018-12-11T12:27:40.402Z,12.10
2018-12-11T12:29:42.980Z,11.70
2018-12-11T12:31:45.532Z,11.60
2018-12-11T12:33:48.330Z,11.50
2018-12-11T12:35:50.955Z,11.20
2018-12-11T12:37:53.533Z,10.70
2018-12-11T12:39:56.182Z,10.20
2018-12-11T12:41:58.793Z,9.90
2018-12-11T12:44:01.454Z,9.60
2018-12-11T12:46:04.025Z,9.40
2018-12-11T12:48:06.578Z,9.20
2018-12-11T12:50:09.180Z,9.00
2018-12-11T12:52:11.843Z,8.60
2018-12-11T12:54:14.663Z,8.30
2018-12-11T12:56:17.347Z,8.00
2018-12-11T12:58:19.964Z,7.80
2018-12-11T13:00:22.564Z,7.70
2018-12-11T13:02:25.188Z,7.80
2018-12-11T13:04:27.833Z,7.70
2018-12-11T13:06:30.603Z,7.50
2018-12-11T13:08:33.703Z,7.40
2018-12-11T13:10:36.318Z,7.20
2018-12-11T13:12:39.073Z,7.10
2018-12-11T13:14:41.846Z,6.80
2018-12-11T13:16:44.436Z,6.60
2018-12-11T13:18:47.008Z,6.30
2018-12-11T13:20:49.590Z,6.10
2018-12-11T13:22:52.165Z,5.90
2018-12-11T13:24:54.759Z,5.70
2018-12-11T13:26:57.369Z,5.70
2018-12-11T13:28:59.935Z,5.70
2018-12-11T13:31:02.512Z,5.70
2018-12-11T13:33:05.078Z,5.70
2018-12-11T13:35:07.760Z,5.70
2018-12-11T13:37:10.334Z,5.60
2018-12-11T13:39:13.114Z,5.60
2018-12-11T13:41:15.737Z,5.60
2018-12-11T13:43:18.467Z,5.60
2018-12-11T13:45:21.116Z,5.60
2018-12-11T13:47:23.687Z,5.60
2018-12-11T13:49:26.261Z,5.60
2018-12-11T13:51:28.859Z,5.50
2018-12-11T13:53:31.441Z,5.40
2018-12-11T13:55:35.075Z,5.30
2018-12-11T13:57:37.682Z,5.30
2018-12-11T13:59:41.832Z,5.30
2018-12-11T14:01:44.459Z,5.30
2018-12-11T14:03:47.170Z,5.30
2018-12-11T14:05:49.803Z,5.30
2018-12-11T14:07:52.379Z,5.30
2018-12-11T14:09:54.989Z,5.30
2018-12-11T14:11:57.547Z,5.30
2018-12-11T14:14:00.134Z,5.20
2018-12-11T14:16:02.979Z,5.30
2018-12-11T14:18:05.686Z,5.30
2018-12-11T14:20:08.283Z,5.20
2018-12-11T14:22:10.849Z,5.20
2018-12-11T14:24:13.433Z,5.20
2018-12-11T14:26:16.361Z,5.20
2018-12-11T14:28:18.985Z,5.20
2018-12-11T14:30:21.741Z,5.30
2018-12-11T14:32:24.295Z,5.30
2018-12-11T14:34:27.675Z,5.30
2018-12-11T14:36:30.397Z,5.30
2018-12-11T14:38:33.285Z,5.30
2018-12-11T14:40:36.391Z,5.20
2018-12-11T14:42:39.054Z,5.20
2018-12-11T14:44:41.983Z,5.20
2018-12-11T14:46:44.727Z,5.20
2018-12-11T14:48:47.371Z,5.10
2018-12-11T14:50:49.978Z,5.10
2018-12-11T14:52:52.646Z,5.00
2018-12-11T14:57:14.487Z,5.00
2018-12-11T14:59:17.113Z,4.90
2018-12-11T15:01:19.771Z,4.90
2018-12-11T15:03:22.972Z,4.90
2018-12-11T15:05:25.602Z,4.80
2018-12-11T15:07:28.276Z,4.70
2018-12-11T15:09:40.348Z,4.60
2018-12-11T15:11:42.962Z,4.60
2018-12-11T15:13:45.612Z,4.50
2018-12-11T15:15:48.904Z,4.50
2018-12-11T15:17:51.486Z,4.50
2018-12-11T15:19:54.066Z,4.30
2018-12-11T15:21:56.661Z,4.20
2018-12-11T15:23:59.264Z,4.20
2018-12-11T15:26:01.875Z,4.20
2018-12-11T15:28:04.486Z,4.20
2018-12-11T15:30:07.061Z,4.10
2018-12-11T15:32:09.683Z,4.10
2018-12-11T15:34:12.539Z,4.10
2018-12-11T15:36:15.280Z,4.10
2018-12-11T15:38:17.848Z,4.00
2018-12-11T15:40:20.427Z,4.00
2018-12-11T15:42:23.074Z,4.00
2018-12-11T15:44:25.642Z,3.90
2018-12-11T15:46:28.599Z,3.90
2018-12-11T15:48:31.233Z,3.80
2018-12-11T15:50:33.828Z,3.80
2018-12-11T15:52:36.474Z,3.80
2018-12-11T15:54:39.048Z,3.80
2018-12-11T15:56:42.039Z,3.70
2018-12-11T15:58:44.628Z,3.60
2018-12-11T16:00:47.209Z,3.60
2018-12-11T16:02:49.814Z,3.60
2018-12-11T16:04:52.383Z,3.60
2018-12-11T16:06:54.982Z,3.60
2018-12-11T16:08:57.621Z,3.60
2018-12-11T16:11:00.397Z,3.60
2018-12-11T16:13:03.054Z,3.60
2018-12-11T16:15:05.863Z,3.60
2018-12-11T16:17:08.465Z,3.60
2018-12-11T16:19:11.045Z,3.60
2018-12-11T16:21:13.643Z,3.50
2018-12-11T16:23:16.217Z,3.50
2018-12-11T16:25:18.798Z,3.40
2018-12-11T16:27:21.874Z,3.40
2018-12-11T16:29:24.451Z,3.40
2018-12-11T16:31:27.200Z,3.40
2018-12-11T16:33:29.804Z,3.40
2018-12-11T16:35:32.376Z,3.50
2018-12-11T16:37:35.368Z,3.50
2018-12-11T16:39:38.016Z,3.50
2018-12-11T16:41:40.621Z,3.50
2018-12-11T16:43:43.876Z,3.40
2018-12-11T16:45:46.449Z,3.40
2018-12-11T16:47:49.047Z,3.40
2018-12-11T16:49:51.626Z,3.40
2018-12-11T16:51:54.230Z,3.40
2018-12-11T16:53:56.829Z,3.40
2018-12-11T16:55:59.409Z,3.50
2018-12-11T16:58:02.028Z,3.50
2018-12-11T17:00:07.091Z,3.50
2018-12-11T17:02:09.710Z,3.40
2018-12-11T17:04:13.161Z,3.40
2018-12-11T17:06:15.777Z,3.40
2018-12-11T17:08:18.390Z,3.40
2018-12-11T17:10:22.943Z,3.30
2018-12-11T17:12:27.106Z,3.30
2018-12-11T17:14:29.948Z,3.30
2018-12-11T17:16:32.641Z,3.20
2018-12-11T17:18:37.790Z,3.20
2018-12-11T17:20:44.690Z,3.20
2018-12-11T17:22:48.668Z,3.20
2018-12-11T17:24:51.375Z,3.20
2018-12-11T17:26:54.023Z,3.20
2018-12-11T17:28:56.627Z,3.10
2018-12-11T17:30:59.227Z,3.10
2018-12-11T17:33:01.940Z,3.10
2018-12-11T17:35:06.292Z,3.10
2018-12-11T17:37:09.241Z,3.10
2018-12-11T17:39:12.554Z,3.00
2018-12-11T17:41:15.436Z,3.00
2018-12-11T17:43:19.874Z,2.90
2018-12-11T17:45:22.666Z,2.90
2018-12-11T17:47:26.204Z,2.80
2018-12-11T17:49:29.468Z,2.80
2018-12-11T17:51:33.007Z,2.80
2018-12-11T17:53:36.825Z,2.80
2018-12-11T17:55:39.395Z,2.70
2018-12-11T17:57:42.351Z,2.70
2018-12-11T17:59:44.968Z,2.70
2018-12-11T18:01:49.174Z,2.70
2018-12-11T18:03:52.006Z,2.60
2018-12-11T18:05:54.570Z,2.50
2018-12-11T18:07:57.179Z,2.60
2018-12-11T18:09:59.744Z,2.50
2018-12-11T18:12:02.318Z,2.50
2018-12-11T18:14:04.950Z,2.50
2018-12-11T18:16:07.526Z,2.40
2018-12-11T18:18:10.182Z,2.40
2018-12-11T18:20:12.805Z,2.30
2018-12-11T18:22:15.373Z,2.30
2018-12-11T18:24:18.408Z,2.30
2018-12-11T18:26:21.270Z,2.30
2018-12-11T18:28:24.242Z,2.20
2018-12-11T18:30:27.205Z,2.20
2018-12-11T18:32:29.842Z,2.20
2018-12-11T18:34:35.412Z,2.20
2018-12-11T18:36:38.866Z,2.20
2018-12-11T18:38:41.594Z,2.20
2018-12-11T18:40:44.151Z,2.20
2018-12-11T18:42:46.721Z,2.20
2018-12-11T18:44:49.318Z,2.20
2018-12-11T18:46:51.915Z,2.20
2018-12-11T18:48:54.519Z,2.10
2018-12-11T18:50:57.095Z,2.10
2018-12-11T18:52:59.694Z,2.10
2018-12-11T18:55:04.820Z,2.10
2018-12-11T18:57:09.006Z,2.10
2018-12-11T18:59:13.376Z,2.20
2018-12-11T19:01:16.521Z,2.00
2018-12-11T19:03:19.372Z,2.10
2018-12-11T19:05:22.588Z,2.10
2018-12-11T19:07:26.345Z,2.00
2018-12-11T19:09:29.158Z,2.00
2018-12-11T19:11:33.160Z,2.00
2018-12-11T19:13:35.892Z,2.00
2018-12-11T19:15:38.866Z,2.10
2018-12-11T19:17:41.463Z,2.00
2018-12-11T19:19:44.548Z,2.10
2018-12-11T19:21:47.294Z,2.10
2018-12-11T19:23:51.166Z,2.10
2018-12-11T19:25:53.831Z,2.10
2018-12-11T19:27:56.789Z,2.10
2018-12-11T19:29:59.622Z,2.10
2018-12-11T19:32:02.375Z,2.10
2018-12-11T19:34:05.235Z,2.10
2018-12-11T19:36:07.857Z,2.00
2018-12-11T19:38:10.467Z,2.10
2018-12-11T19:40:13.299Z,2.10
2018-12-11T19:42:15.946Z,2.10
2018-12-11T19:44:18.667Z,2.10
2018-12-11T19:46:21.290Z,2.10
2018-12-11T19:48:23.924Z,2.20
2018-12-11T19:50:26.527Z,2.10
2018-12-11T19:52:29.093Z,2.10
2018-12-11T19:54:31.737Z,2.10
2018-12-11T19:56:34.306Z,2.10
2018-12-11T19:58:37.530Z,2.10
2018-12-11T20:00:40.456Z,2.10
2018-12-11T20:02:43.367Z,2.10
2018-12-11T20:04:46.731Z,2.10
2018-12-11T20:06:49.583Z,2.10
2018-12-11T20:08:52.421Z,2.10
2018-12-11T20:10:55.169Z,2.20
2018-12-11T20:12:57.926Z,2.20
2018-12-11T20:15:04.656Z,2.20
2018-12-11T20:17:05.302Z,2.20
2018-12-11T20:19:07.863Z,2.20
2018-12-11T20:21:10.564Z,2.20
2018-12-11T20:23:13.409Z,2.10
2018-12-11T20:25:16.083Z,2.10
2018-12-11T20:27:18.708Z,2.20
2018-12-11T20:29:21.346Z,2.20
2018-12-11T20:31:24.744Z,2.20
2018-12-11T20:33:27.350Z,2.20
2018-12-11T20:35:29.961Z,2.20
2018-12-11T20:37:32.604Z,2.10
2018-12-11T20:39:35.179Z,2.10
2018-12-11T20:41:37.790Z,2.10
2018-12-11T20:43:40.519Z,2.10
2018-12-11T20:45:43.197Z,2.10
2018-12-11T20:47:46.180Z,2.20
2018-12-11T20:49:48.878Z,2.20
2018-12-11T20:51:52.181Z,2.30
2018-12-11T20:53:55.409Z,2.30
2018-12-11T20:55:58.518Z,2.30
2018-12-11T20:58:01.142Z,2.30
2018-12-11T21:00:07.675Z,2.20
2018-12-11T21:02:10.250Z,2.20
2018-12-11T21:04:12.857Z,2.20
2018-12-11T21:06:15.466Z,2.20
2018-12-11T21:08:18.073Z,2.10
2018-12-11T21:10:20.676Z,2.10
2018-12-11T21:12:23.227Z,2.10
2018-12-11T21:14:25.814Z,2.10
2018-12-11T21:16:28.578Z,2.10
2018-12-11T21:18:31.539Z,2.10
2018-12-11T21:20:34.212Z,2.10
2018-12-11T21:22:37.840Z,2.10
2018-12-11T21:24:40.452Z,2.10
2018-12-11T21:26:43.258Z,2.10
2018-12-11T21:28:45.848Z,2.10
2018-12-11T21:30:48.465Z,2.00
2018-12-11T21:32:51.039Z,2.00
2018-12-11T21:34:53.613Z,2.00
2018-12-11T21:36:56.786Z,2.00
2018-12-11T21:38:59.402Z,2.00
2018-12-11T21:41:02.000Z,2.00
2018-12-11T21:43:04.686Z,2.00
2018-12-11T21:45:09.494Z,2.00
2018-12-11T21:47:12.095Z,1.90
2018-12-11T21:49:16.674Z,1.90
2018-12-11T21:51:20.087Z,2.00
2018-12-11T21:53:22.663Z,1.90
2018-12-11T21:55:25.297Z,1.90
2018-12-11T21:57:27.903Z,1.90
2018-12-11T21:59:30.497Z,2.00
2018-12-11T22:01:33.094Z,2.00
2018-12-11T22:03:35.875Z,2.00
2018-12-11T22:05:38.451Z,2.00
2018-12-11T22:07:41.047Z,2.00
2018-12-11T22:09:43.625Z,2.00
2018-12-11T22:11:46.221Z,2.10
2018-12-11T22:13:48.794Z,2.00
2018-12-11T22:15:51.369Z,2.00
2018-12-11T22:17:53.998Z,2.00
2018-12-11T22:19:56.594Z,2.00
2018-12-11T22:21:59.258Z,2.00
2018-12-11T22:24:01.821Z,1.90
2018-12-11T22:26:04.418Z,2.00
2018-12-11T22:28:07.019Z,2.00
2018-12-11T22:30:09.692Z,2.00
2018-12-11T22:32:12.347Z,2.00
2018-12-11T22:34:14.922Z,2.00
2018-12-11T22:36:18.629Z,2.00
2018-12-11T22:38:21.537Z,2.00
2018-12-11T22:40:24.126Z,2.00
2018-12-11T22:42:26.727Z,2.00
2018-12-11T22:44:29.743Z,2.00
2018-12-11T22:46:32.359Z,2.00
2018-12-11T22:48:35.415Z,2.00
2018-12-11T22:50:40.946Z,2.00
2018-12-11T22:52:43.577Z,2.00
2018-12-11T22:54:46.246Z,2.00
2018-12-11T22:56:48.867Z,2.00
2018-12-11T22:58:51.629Z,2.10
2018-12-11T23:00:54.193Z,2.10
2018-12-11T23:02:56.806Z,2.00
2018-12-11T23:04:59.619Z,2.10
2018-12-11T23:07:02.252Z,2.10
2018-12-11T23:09:07.284Z,2.10
2018-12-11T23:11:10.394Z,2.10
2018-12-11T23:13:13.810Z,2.10
2018-12-11T23:15:16.442Z,2.10
2018-12-11T23:17:19.452Z,2.10
2018-12-11T23:19:22.270Z,2.00
2018-12-11T23:21:24.827Z,2.00
2018-12-11T23:23:27.948Z,2.00
2018-12-11T23:25:31.080Z,2.00
2018-12-11T23:27:33.810Z,1.90
2018-12-11T23:29:36.886Z,1.90
2018-12-11T23:31:39.461Z,1.90
2018-12-11T23:33:42.061Z,1.90
2018-12-11T23:35:44.639Z,1.90
2018-12-11T23:37:47.577Z,1.90
2018-12-11T23:39:50.301Z,1.90
2018-12-11T23:41:55.505Z,1.90
2018-12-11T23:43:58.196Z,1.90
2018-12-11T23:46:00.967Z,1.90
2018-12-11T23:48:04.654Z,1.90
2018-12-11T23:50:07.610Z,2.00
2018-12-11T23:52:10.179Z,2.00
2018-12-11T23:54:13.787Z,2.00
2018-12-11T23:56:16.372Z,1.90
2018-12-11T23:58:20.099Z,1.90
